createdAt,value
2023-02-04T00:00:14.326Z,2.10
2023-02-04T00:05:18.986Z,2.67
2023-02-04T00:10:24.123Z,1.80
2023-02-04T00:15:27.900Z,2.28
2023-02-04T00:20:31.864Z,1.92
2023-02-04T00:25:37.172Z,2.42
2023-02-04T00:30:40.889Z,3.08
2023-02-04T00:35:46.044Z,2.88
2023-02-04T00:40:51.938Z,3.10
2023-02-04T00:45:55.639Z,3.17
2023-02-04T00:50:59.310Z,3.17
2023-02-04T00:56:04.326Z,3.38
2023-02-04T01:01:08.031Z,3.40
2023-02-04T01:06:12.415Z,3.33
2023-02-04T01:11:17.606Z,3.03
2023-02-04T01:16:21.538Z,2.30
2023-02-04T01:21:25.654Z,3.22
2023-02-04T01:26:30.848Z,3.17
2023-02-04T01:31:34.592Z,2.70
2023-02-04T01:36:39.449Z,3.20
2023-02-04T01:41:44.797Z,2.95
2023-02-04T01:46:48.668Z,3.20
2023-02-04T01:51:53.810Z,2.22
2023-02-04T01:56:58.960Z,2.60
2023-02-04T02:02:02.678Z,2.78
2023-02-04T02:07:09.919Z,2.67
2023-02-04T02:17:18.460Z,2.65
2023-02-04T02:22:27.261Z,2.53
2023-02-04T02:27:32.598Z,2.90
2023-02-04T02:32:36.724Z,2.80
2023-02-04T02:37:40.611Z,2.47
2023-02-04T02:42:48.504Z,2.63
2023-02-04T02:47:52.963Z,2.97
2023-02-04T02:52:57.169Z,2.60
2023-02-04T02:58:02.631Z,2.78
2023-02-04T03:03:11.330Z,3.08
2023-02-04T03:08:17.178Z,2.53
2023-02-04T03:13:23.269Z,2.42
2023-02-04T03:18:27.214Z,2.58
2023-02-04T03:23:33.225Z,3.13
2023-02-04T03:28:43.233Z,3.33
2023-02-04T03:33:47.190Z,3.35
2023-02-04T03:38:52.243Z,3.88
2023-02-04T03:43:57.409Z,3.97
2023-02-04T03:49:01.033Z,4.57
2023-02-04T03:54:04.799Z,4.35
2023-02-04T03:59:09.896Z,3.97
2023-02-04T04:04:13.745Z,5.68
2023-02-04T04:09:17.463Z,6.40
2023-02-04T04:14:22.529Z,6.72
2023-02-04T04:19:26.192Z,6.45
2023-02-04T04:24:29.913Z,7.50
2023-02-04T04:29:35.116Z,6.38
2023-02-04T04:34:38.791Z,7.05
2023-02-04T04:39:42.629Z,6.72
2023-02-04T04:44:47.707Z,6.68
2023-02-04T04:49:51.474Z,6.63
2023-02-04T04:54:55.124Z,6.80
2023-02-04T05:00:00.161Z,5.57
2023-02-04T05:05:03.893Z,5.18
2023-02-04T05:10:08.211Z,4.97
2023-02-04T05:15:13.398Z,5.00
2023-02-04T05:20:17.280Z,5.30
2023-02-04T05:25:20.899Z,4.93
2023-02-04T05:30:26.069Z,5.47
2023-02-04T05:35:30.399Z,5.15
2023-02-04T05:40:34.206Z,5.00
2023-02-04T05:45:39.363Z,5.10
2023-02-04T05:50:43.024Z,5.50
2023-02-04T05:55:46.707Z,4.70
2023-02-04T06:00:51.776Z,4.60
2023-02-04T06:05:55.552Z,6.25
2023-02-04T06:10:59.245Z,6.35
2023-02-04T06:16:04.406Z,6.45
2023-02-04T06:21:08.057Z,6.90
2023-02-04T06:26:12.222Z,6.65
2023-02-04T06:31:17.319Z,7.32
2023-02-04T06:36:21.033Z,7.82
2023-02-04T06:41:24.744Z,8.10
2023-02-04T06:46:29.993Z,8.20
2023-02-04T06:51:33.952Z,9.88
2023-02-04T06:56:37.753Z,9.18
2023-02-04T07:01:42.837Z,10.07
2023-02-04T07:06:46.635Z,9.88
2023-02-04T07:11:50.336Z,9.57
2023-02-04T07:16:58.204Z,10.05
2023-02-04T07:22:01.842Z,10.93
2023-02-04T07:27:05.517Z,11.30
2023-02-04T07:32:10.618Z,11.38
2023-02-04T07:37:14.246Z,11.57
2023-02-04T07:42:18.055Z,12.68
2023-02-04T07:47:31.121Z,13.00
2023-02-04T07:52:34.934Z,12.77
2023-02-04T07:57:38.561Z,12.38
2023-02-04T08:02:43.928Z,13.15
2023-02-04T08:07:52.017Z,13.77
2023-02-04T08:12:55.729Z,15.02
2023-02-04T08:18:00.784Z,14.85
2023-02-04T08:23:04.498Z,13.38
2023-02-04T08:28:08.253Z,14.35
2023-02-04T08:33:13.564Z,14.02
2023-02-04T08:38:17.282Z,15.07
2023-02-04T08:43:21.086Z,14.05
2023-02-04T08:48:26.104Z,13.13
2023-02-04T08:53:29.962Z,12.63
2023-02-04T08:58:33.677Z,13.07
2023-02-04T09:03:39.199Z,11.13
2023-02-04T09:08:42.954Z,12.30
2023-02-04T09:13:46.892Z,11.90
2023-02-04T09:18:51.972Z,12.40
2023-02-04T09:23:55.677Z,11.73
2023-02-04T09:28:59.353Z,11.50
2023-02-04T09:34:04.593Z,11.57
2023-02-04T09:39:09.998Z,11.68
2023-02-04T09:44:17.703Z,11.90
2023-02-04T09:49:22.984Z,9.63
2023-02-04T09:54:26.781Z,9.80
2023-02-04T09:59:30.474Z,9.75
2023-02-04T10:04:35.858Z,8.73
2023-02-04T10:09:41.054Z,7.95
2023-02-04T10:14:45.540Z,7.72
2023-02-04T10:19:51.112Z,8.13
2023-02-04T10:24:54.888Z,6.13
2023-02-04T10:29:59.650Z,7.60
2023-02-04T10:35:07.876Z,4.88
2023-02-04T10:40:29.906Z,4.28
2023-02-04T10:45:33.632Z,4.68
2023-02-04T10:50:38.829Z,3.03
2023-02-04T10:55:42.597Z,4.13
2023-02-04T11:00:46.373Z,3.53
2023-02-04T11:05:52.300Z,3.58
2023-02-04T11:10:59.306Z,3.50
2023-02-04T11:16:25.151Z,3.80
2023-02-04T11:21:42.390Z,3.33
2023-02-04T11:26:47.489Z,3.58
2023-02-04T11:32:05.062Z,3.05
2023-02-04T11:37:18.708Z,2.88
2023-02-04T11:42:27.883Z,3.25
2023-02-04T11:47:37.267Z,3.42
2023-02-04T11:52:42.390Z,3.35
2023-02-04T11:57:47.126Z,2.78
2023-02-04T12:02:52.829Z,3.08
2023-02-04T12:08:11.689Z,2.65
2023-02-04T12:13:25.179Z,2.72
2023-02-04T12:18:29.659Z,3.33
2023-02-04T12:23:34.875Z,2.97
2023-02-04T12:28:38.518Z,3.03
2023-02-04T12:33:42.296Z,2.47
2023-02-04T12:38:47.421Z,1.90
2023-02-04T12:43:51.302Z,2.78
2023-02-04T12:48:55.091Z,3.30
2023-02-04T12:54:00.231Z,2.75
2023-02-04T12:59:03.940Z,2.58
2023-02-04T13:04:07.780Z,2.90
2023-02-04T13:09:12.839Z,3.15
2023-02-04T13:14:16.775Z,3.53
2023-02-04T13:19:20.556Z,3.05
2023-02-04T13:24:25.808Z,2.85
2023-02-04T13:29:29.452Z,3.20
2023-02-04T13:34:33.185Z,3.35
2023-02-04T13:39:38.621Z,4.03
2023-02-04T13:44:42.519Z,4.05
2023-02-04T13:49:46.368Z,3.40
2023-02-04T13:54:51.502Z,4.05
2023-02-04T13:59:55.637Z,3.97
2023-02-04T14:04:59.898Z,4.97
2023-02-04T14:10:05.327Z,5.55
2023-02-04T14:15:10.001Z,6.50
2023-02-04T14:20:14.170Z,6.00
2023-02-04T14:25:19.503Z,6.95
2023-02-04T14:30:25.064Z,5.57
2023-02-04T14:35:29.701Z,5.57
2023-02-04T14:40:35.031Z,5.10
2023-02-04T14:45:40.112Z,5.88
2023-02-04T14:50:43.756Z,6.70
2023-02-04T14:55:48.882Z,6.65
2023-02-04T15:00:52.564Z,5.47
2023-02-04T15:05:56.279Z,5.82
2023-02-04T15:11:01.377Z,6.95
2023-02-04T15:16:05.651Z,7.40
2023-02-04T15:21:09.843Z,7.15
2023-02-04T15:26:15.540Z,8.00
2023-02-04T15:31:19.402Z,7.53
2023-02-04T15:36:23.217Z,8.75
2023-02-04T15:41:28.519Z,9.80
2023-02-04T15:46:32.510Z,9.45
2023-02-04T15:57:17.766Z,9.13
2023-02-04T16:02:21.589Z,10.80
2023-02-04T16:07:25.744Z,9.80
2023-02-04T16:12:30.864Z,8.23
2023-02-04T16:17:34.645Z,8.30
2023-02-04T16:22:38.394Z,7.20
2023-02-04T16:27:43.726Z,7.03
2023-02-04T16:32:47.484Z,8.82
2023-02-04T16:37:51.168Z,8.43
2023-02-04T16:42:56.229Z,9.13
2023-02-04T16:47:59.882Z,10.77
2023-02-04T16:53:03.726Z,8.90
2023-02-04T16:58:09.157Z,10.23
2023-02-04T17:03:13.751Z,9.00
2023-02-04T17:08:17.752Z,8.82
2023-02-04T17:13:23.053Z,7.75
2023-02-04T17:18:27.199Z,7.85
2023-02-04T17:23:31.030Z,7.20
2023-02-04T17:28:36.196Z,8.10
2023-02-04T17:33:39.978Z,7.05
2023-02-04T17:38:43.670Z,10.27
2023-02-04T17:43:48.747Z,8.95
2023-02-04T17:48:52.932Z,9.95
2023-02-04T17:53:56.638Z,9.60
2023-02-04T17:59:01.918Z,8.43
2023-02-04T18:04:07.609Z,8.75
2023-02-04T18:09:16.118Z,7.25
2023-02-04T18:14:28.480Z,8.25
2023-02-04T18:19:37.081Z,8.88
2023-02-04T18:24:42.994Z,9.15
2023-02-04T18:29:50.237Z,9.32
2023-02-04T18:34:56.019Z,10.00
2023-02-04T18:40:23.476Z,10.80
2023-02-04T18:45:30.643Z,10.80
2023-02-04T18:50:36.373Z,10.45
2023-02-04T18:55:41.711Z,10.65
2023-02-04T19:00:51.126Z,9.57
2023-02-04T19:05:57.318Z,10.02
2023-02-04T19:11:01.677Z,8.93
2023-02-04T19:16:19.171Z,8.63
2023-02-04T19:21:28.768Z,9.52
2023-02-04T19:26:40.322Z,8.80
2023-02-04T19:31:45.522Z,9.05
2023-02-04T19:36:49.225Z,9.38
2023-02-04T19:41:53.963Z,8.68
2023-02-04T19:47:19.221Z,8.93
2023-02-04T19:52:33.355Z,8.82
2023-02-04T19:57:37.224Z,9.52
2023-02-04T20:02:42.404Z,11.77
2023-02-04T20:07:47.046Z,12.50
2023-02-04T20:12:52.316Z,13.70
2023-02-04T20:17:59.522Z,12.10
2023-02-04T20:28:30.080Z,11.10
2023-02-04T20:33:46.003Z,13.85
2023-02-04T20:38:49.896Z,11.55
2023-02-04T20:43:53.594Z,12.15
2023-02-04T20:48:58.607Z,13.60
2023-02-04T20:54:09.422Z,15.32
2023-02-04T20:59:34.768Z,16.05
2023-02-04T21:04:43.567Z,14.68
2023-02-04T21:09:48.234Z,14.95
2023-02-04T21:14:52.566Z,15.60
2023-02-04T21:19:57.844Z,15.38
2023-02-04T21:25:01.500Z,15.75
2023-02-04T21:30:05.711Z,15.38
2023-02-04T21:35:11.082Z,15.65
2023-02-04T21:40:16.361Z,16.85
2023-02-04T21:45:21.970Z,18.05
2023-02-04T21:50:30.261Z,16.63
2023-02-04T21:55:34.434Z,19.90
2023-02-04T22:00:38.366Z,16.75
2023-02-04T22:05:43.868Z,17.58
2023-02-04T22:10:47.574Z,17.27
2023-02-04T22:15:51.310Z,18.60
2023-02-04T22:20:56.430Z,18.30
2023-02-04T22:26:00.134Z,17.98
2023-02-04T22:31:03.998Z,16.63
2023-02-04T22:36:12.233Z,17.75
2023-02-04T22:41:15.989Z,17.92
2023-02-04T22:46:19.685Z,18.58
2023-02-04T22:51:25.268Z,17.50
2023-02-04T22:56:29.218Z,17.23
2023-02-04T23:01:33.027Z,18.20
2023-02-04T23:06:40.823Z,17.07
2023-02-04T23:11:44.723Z,17.75
2023-02-04T23:16:49.139Z,16.88
2023-02-04T23:21:54.212Z,17.20
2023-02-04T23:26:59.985Z,17.40
2023-02-04T23:32:04.580Z,17.27
2023-02-04T23:37:09.647Z,17.23
2023-02-04T23:42:13.682Z,16.23
2023-02-04T23:47:17.472Z,17.23
2023-02-04T23:52:22.562Z,16.13
2023-02-04T23:57:26.283Z,17.25
